Time;durP1;ratioP1;P1;durP2;ratioP2;P2;SDS_P1;SDS_P2;PMS_P1;PMS_P2;Temp;Humidity;BMP_temperature;BMP_pressure;BME280_temperature;BME280_humidity;BME280_pressure;Samples;Min_cycle;Max_cycle;Signal;HPM_P1;HPM_P2
2023/10/01 00:01:58;;;;;;;13.10;9.80;;;;;;;9.35;100.00;97687.60;109860;1243;69626;-61
2023/10/01 00:04:31;;;;;;;10.20;7.80;;;;;;;9.34;100.00;97694.45;109947;1244;68647;-62
2023/10/01 00:07:03;;;;;;;10.10;7.40;;;;;;;9.33;100.00;97690.33;109831;1243;67601;-62
2023/10/01 00:09:35;;;;;;;10.80;7.40;;;;;;;9.32;100.00;97690.43;109916;1244;59702;-60
2023/10/01 00:12:07;;;;;;;10.40;7.80;;;;;;;9.30;100.00;97688.61;109945;1244;59765;-60
2023/10/01 00:14:39;;;;;;;11.00;7.80;;;;;;;9.27;100.00;97691.41;109971;1244;71402;-61
2023/10/01 00:17:09;;;;;;;10.40;7.60;;;;;;;9.24;100.00;97687.77;109818;1246;69237;-61
2023/10/01 00:19:42;;;;;;;9.30;7.70;;;;;;;9.23;100.00;97688.52;109962;1243;68443;-61
2023/10/01 00:22:17;;;;;;;10.40;8.30;;;;;;;9.21;100.00;97688.81;109835;1244;59810;-61
2023/10/01 00:24:56;;;;;;;13.00;8.40;;;;;;;9.14;100.00;97690.84;109973;1243;59721;-61
2023/10/01 00:27:30;;;;;;;9.50;7.60;;;;;;;9.02;100.00;97692.27;109916;1244;71294;-61
2023/10/01 00:30:02;;;;;;;10.70;7.70;;;;;;;8.92;100.00;97691.86;109945;1244;69157;-61
2023/10/01 00:32:34;;;;;;;9.40;7.00;;;;;;;8.86;100.00;97694.48;109780;1246;69334;-61
2023/10/01 00:35:06;;;;;;;10.70;7.90;;;;;;;8.81;100.00;97691.98;109961;1243;59743;-61
2023/10/01 00:37:41;;;;;;;9.20;7.00;;;;;;;8.78;100.00;97691.18;109788;1243;59756;-61
2023/10/01 00:40:13;;;;;;;11.40;8.60;;;;;;;8.75;100.00;97687.31;110025;1244;71209;-61
2023/10/01 00:42:45;;;;;;;11.50;8.40;;;;;;;8.67;100.00;97688.33;109914;1244;69202;-61
2023/10/01 00:45:20;;;;;;;11.40;8.30;;;;;;;8.62;99.80;97682.20;109937;1244;69137;-61
2023/10/01 00:47:54;;;;;;;10.80;8.50;;;;;;;8.57;95.52;97683.88;109771;1244;60108;-61
2023/10/01 00:50:28;;;;;;;13.00;9.40;;;;;;;8.52;94.06;97684.58;109890;1246;59656;-61
2023/10/01 00:53:00;;;;;;;12.00;9.10;;;;;;;8.46;95.20;97687.36;109775;1243;71408;-61
2023/10/01 00:55:32;;;;;;;14.40;10.40;;;;;;;8.40;96.82;97690.67;109783;1243;68855;-61
2023/10/01 00:58:06;;;;;;;13.80;10.80;;;;;;;8.37;98.41;97695.34;109787;1246;68563;-61
2023/10/01 01:00:39;;;;;;;14.60;10.70;;;;;;;8.36;98.92;97691.20;109845;1244;59737;-61
2023/10/01 01:03:19;;;;;;;11.00;8.80;;;;;;;8.34;99.48;97695.87;109765;1243;59705;-61
2023/10/01 01:08:46;;;;;;;11.10;8.30;;;;;;;8.32;100.00;97692.48;109715;1244;69101;-61
2023/10/01 01:11:26;;;;;;;10.80;7.30;;;;;;;8.33;100.00;97693.27;109850;1244;69280;-62
2023/10/01 01:14:01;;;;;;;11.20;8.00;;;;;;;8.35;100.00;97693.50;109777;1244;60226;-60
2023/10/01 01:16:33;;;;;;;9.60;7.20;;;;;;;8.36;100.00;97692.95;109834;1244;59676;-60
2023/10/01 01:19:06;;;;;;;9.70;8.00;;;;;;;8.37;100.00;97692.57;109818;1243;71350;-60
2023/10/01 01:21:44;;;;;;;10.40;8.40;;;;;;;8.38;100.00;97692.31;109775;1245;68072;-60
2023/10/01 01:24:16;;;;;;;9.60;7.70;;;;;;;8.40;100.00;97688.38;109806;1244;68551;-60
2023/10/01 01:26:52;;;;;;;12.20;8.00;;;;;;;8.41;100.00;97690.08;109803;1244;59699;-60
2023/10/01 01:29:40;;;;;;;10.90;7.40;;;;;;;8.40;100.00;97689.06;109899;1244;59693;-60
2023/10/01 01:32:15;;;;;;;10.00;6.80;;;;;;;8.37;100.00;97691.88;109858;1244;70586;-60
2023/10/01 01:34:46;;;;;;;7.90;6.30;;;;;;;8.34;100.00;97693.41;109995;1243;68810;-60
2023/10/01 01:37:30;;;;;;;8.90;7.30;;;;;;;8.33;100.00;97694.14;109944;1243;69525;-60
2023/10/01 01:40:09;;;;;;;9.60;6.80;;;;;;;8.33;100.00;97698.20;109956;1243;59743;-60
2023/10/01 01:42:40;;;;;;;10.20;7.60;;;;;;;8.30;100.00;97698.36;109784;1244;59695;-60
2023/10/01 01:45:19;;;;;;;8.80;6.30;;;;;;;8.27;100.00;97704.45;109901;1243;70547;-60
2023/10/01 01:47:49;;;;;;;10.20;7.50;;;;;;;8.27;100.00;97700.60;109850;1244;69161;-59
2023/10/01 01:50:23;;;;;;;14.10;9.70;;;;;;;8.25;100.00;97701.20;109853;1244;69210;-60
2023/10/01 01:52:57;;;;;;;9.60;7.40;;;;;;;8.20;100.00;97700.34;109844;1244;59740;-60
2023/10/01 01:55:27;;;;;;;10.10;7.30;;;;;;;8.15;100.00;97699.21;109885;1242;59666;-60
2023/10/01 01:58:08;;;;;;;9.60;7.60;;;;;;;8.11;100.00;97702.23;109885;1244;71413;-60
2023/10/01 02:01:01;;;;;;;11.90;8.70;;;;;;;8.06;99.85;97702.16;109783;1247;68729;-60
2023/10/01 02:03:35;;;;;;;11.50;8.20;;;;;;;8.02;100.00;97706.55;109851;1243;69726;-60
2023/10/01 02:06:08;;;;;;;11.00;8.00;;;;;;;8.00;100.00;97708.93;109792;1244;59751;-60
2023/10/01 02:08:50;;;;;;;9.40;8.10;;;;;;;7.98;100.00;97712.71;109811;1242;59705;-60
2023/10/01 02:11:21;;;;;;;9.80;7.70;;;;;;;7.96;100.00;97709.89;109782;1243;70452;-60
2023/10/01 02:13:54;;;;;;;8.10;6.30;;;;;;;7.93;100.00;97711.77;109763;1246;69290;-60
2023/10/01 02:19:17;;;;;;;9.50;7.00;;;;;;;7.90;100.00;97709.14;109856;1244;59753;-62
2023/10/01 02:22:05;;;;;;;11.10;8.20;;;;;;;7.89;100.00;97705.94;109789;1245;59683;-61
2023/10/01 02:24:54;;;;;;;10.50;6.80;;;;;;;7.89;100.00;97701.93;109957;1244;71263;-61
2023/10/01 02:27:28;;;;;;;11.30;8.50;;;;;;;7.90;100.00;97700.83;109909;1244;68300;-61
2023/10/01 02:30:14;;;;;;;12.20;8.30;;;;;;;7.90;100.00;97700.11;109822;1243;69354;-61
2023/10/01 02:35:36;;;;;;;10.10;8.30;;;;;;;7.92;100.00;97699.88;109844;1243;59761;-61
2023/10/01 02:41:02;;;;;;;11.70;8.40;;;;;;;7.89;100.00;97701.07;109883;1245;68302;-61
2023/10/01 02:43:41;;;;;;;12.10;9.20;;;;;;;7.84;100.00;97704.48;109901;1245;69423;-61
2023/10/01 02:46:15;;;;;;;10.90;7.80;;;;;;;7.79;100.00;97702.70;109860;1247;59726;-62
2023/10/01 02:48:49;;;;;;;10.30;7.00;;;;;;;7.75;100.00;97703.45;109924;1244;59684;-61
2023/10/01 02:51:32;;;;;;;12.80;8.60;;;;;;;7.71;100.00;97701.05;109934;1244;71532;-60
2023/10/01 02:54:09;;;;;;;9.80;7.90;;;;;;;7.69;100.00;97703.10;109866;1244;69260;-60
2023/10/01 02:57:11;;;;;;;10.00;7.60;;;;;;;7.65;100.00;97703.08;109895;1246;69101;-60
2023/10/01 03:02:33;;;;;;;10.50;7.40;;;;;;;7.62;100.00;97705.55;109798;1245;59684;-60
2023/10/01 03:05:18;;;;;;;10.90;8.00;;;;;;;7.62;100.00;97704.13;109848;1245;71936;-60
2023/10/01 03:07:51;;;;;;;11.30;7.90;;;;;;;7.62;100.00;97699.14;109930;1243;69217;-60
2023/10/01 03:10:26;;;;;;;8.40;7.20;;;;;;;7.62;100.00;97702.23;109709;1243;68515;-60
2023/10/01 03:13:14;;;;;;;8.10;6.50;;;;;;;7.60;100.00;97703.54;109806;1243;59702;-60
2023/10/01 03:18:40;;;;;;;8.00;6.00;;;;;;;7.54;100.00;97705.32;109889;1247;72124;-60
2023/10/01 03:22:13;;;;;;;10.00;7.00;;;;;;;7.51;100.00;97705.84;109809;1244;69389;-60
2023/10/01 03:24:11;;;;;;;7.30;6.00;;;;;;;7.48;100.00;97700.95;109986;1248;69281;-60
2023/10/01 03:26:44;;;;;;;9.40;6.80;;;;;;;7.48;100.00;97699.55;109788;1244;59703;-59
2023/10/01 03:30:00;;;;;;;12.10;8.20;;;;;;;7.45;100.00;97699.02;109762;1243;59682;-60
2023/10/01 03:35:04;;;;;;;9.60;7.90;;;;;;;7.33;100.00;97700.76;109834;1243;69429;-59
2023/10/01 03:37:38;;;;;;;9.60;8.60;;;;;;;7.28;100.00;97695.33;109792;1242;69163;-60
2023/10/01 03:40:16;;;;;;;9.20;7.50;;;;;;;7.24;100.00;97698.30;109858;1244;59755;-59
2023/10/01 03:42:51;;;;;;;11.10;7.50;;;;;;;7.21;100.00;97702.27;109936;1244;59679;-59
2023/10/01 03:45:37;;;;;;;10.00;7.40;;;;;;;7.19;100.00;97704.50;109772;1243;70498;-59
2023/10/01 03:48:19;;;;;;;9.30;7.00;;;;;;;7.15;100.00;97699.84;109908;1245;69184;-60
2023/10/01 03:50:50;;;;;;;9.50;7.70;;;;;;;7.12;100.00;97701.20;109915;1243;69160;-60
2023/10/01 03:53:22;;;;;;;14.40;10.10;;;;;;;7.11;100.00;97703.48;109870;1247;59758;-60
2023/10/01 03:55:55;;;;;;;18.80;12.60;;;;;;;7.10;100.00;97699.23;109822;1244;59656;-60
2023/10/01 03:58:26;;;;;;;19.60;13.00;;;;;;;7.09;100.00;97698.07;109854;1245;70286;-60
2023/10/01 04:01:14;;;;;;;19.70;13.80;;;;;;;7.08;100.00;97704.05;109900;1246;69247;-60
2023/10/01 04:03:46;;;;;;;15.90;12.00;;;;;;;7.07;100.00;97708.94;109829;1244;69142;-60
2023/10/01 04:06:16;;;;;;;18.90;12.30;;;;;;;7.05;100.00;97713.20;109844;1244;59716;-60
2023/10/01 04:08:47;;;;;;;14.00;10.80;;;;;;;7.03;100.00;97711.41;109891;1245;59721;-60
2023/10/01 04:11:18;;;;;;;13.90;10.90;;;;;;;7.02;100.00;97710.58;109910;1243;71956;-60
2023/10/01 04:14:07;;;;;;;;;;;;;;;7.01;100.00;97711.34;109924;1243;69265;-60
2023/10/01 04:16:46;;;;;;;14.40;10.20;;;;;;;7.00;100.00;97715.54;109878;1245;69858;-60
2023/10/01 04:19:20;;;;;;;13.20;9.40;;;;;;;6.99;100.00;97715.80;109949;1247;59702;-60
2023/10/01 04:21:53;;;;;;;17.30;12.30;;;;;;;6.96;100.00;97716.27;109826;1246;59702;-60
2023/10/01 04:24:24;;;;;;;17.60;11.50;;;;;;;6.92;100.00;97720.10;109802;1245;71456;-60
2023/10/01 04:26:54;;;;;;;14.90;10.00;;;;;;;6.87;100.00;97724.02;109844;1245;69689;-60
2023/10/01 04:29:44;;;;;;;18.80;13.00;;;;;;;6.84;100.00;97720.21;109844;1247;69328;-59
2023/10/01 04:32:16;;;;;;;13.90;10.40;;;;;;;6.82;100.00;97721.70;109782;1245;59677;-60
2023/10/01 04:34:47;;;;;;;12.70;9.10;;;;;;;6.81;100.00;97721.23;109806;1243;59692;-60
2023/10/01 04:37:36;;;;;;;11.10;8.10;;;;;;;6.81;100.00;97725.91;109776;1243;71983;-59
2023/10/01 04:43:08;;;;;;;10.80;7.50;;;;;;;6.82;100.00;97721.88;109732;1244;68796;-60
2023/10/01 04:45:40;;;;;;;11.20;8.20;;;;;;;6.85;100.00;97725.20;109914;1243;59759;-60
2023/10/01 04:48:24;;;;;;;9.40;7.40;;;;;;;6.91;100.00;97724.70;109905;1243;59693;-60
2023/10/01 04:50:55;;;;;;;8.90;7.30;;;;;;;7.01;100.00;97727.81;109994;1246;71424;-60
2023/10/01 04:53:25;;;;;;;11.70;8.10;;;;;;;7.11;100.00;97734.33;109817;1245;68550;-60
2023/10/01 04:56:01;;;;;;;13.00;9.60;;;;;;;7.28;100.00;97734.30;109766;1243;68310;-60
2023/10/01 04:58:38;;;;;;;11.40;8.20;;;;;;;7.47;100.00;97737.95;109851;1243;59748;-60
2023/10/01 05:01:12;;;;;;;10.80;7.90;;;;;;;7.65;100.00;97740.09;109814;1245;59698;-62
2023/10/01 05:03:44;;;;;;;14.10;9.40;;;;;;;7.85;100.00;97746.08;109930;1245;71641;-62
2023/10/01 05:06:19;;;;;;;13.20;9.20;;;;;;;8.03;100.00;97749.91;109935;1243;69727;-60
2023/10/01 05:08:56;;;;;;;15.70;10.20;;;;;;;8.17;100.00;97749.26;109883;1245;69851;-60
2023/10/01 05:11:33;;;;;;;13.30;10.00;;;;;;;8.34;100.00;97749.34;110003;1246;60097;-60
2023/10/01 05:14:04;;;;;;;11.80;9.50;;;;;;;8.48;100.00;97755.86;109940;1246;59676;-60
2023/10/01 05:16:38;;;;;;;11.30;9.50;;;;;;;8.65;100.00;97756.40;109865;1243;71431;-60
2023/10/01 05:19:13;;;;;;;12.30;9.10;;;;;;;8.84;100.00;97758.02;109805;1245;69377;-60
2023/10/01 05:21:49;;;;;;;10.10;8.70;;;;;;;8.97;100.00;97763.02;109843;1246;69870;-60
2023/10/01 05:24:36;;;;;;;8.40;7.40;;;;;;;9.07;100.00;97767.94;109856;1243;59744;-60
2023/10/01 05:27:18;;;;;;;9.80;7.70;;;;;;;9.28;100.00;97773.30;109926;1247;59725;-62
2023/10/01 05:29:48;;;;;;;11.80;8.60;;;;;;;9.47;100.00;97775.20;109899;1244;71407;-61
2023/10/01 05:32:18;;;;;;;11.10;7.90;;;;;;;9.71;100.00;97781.16;109968;1246;69254;-62
2023/10/01 05:34:49;;;;;;;10.40;7.40;;;;;;;9.98;100.00;97781.90;109844;1243;69799;-62
2023/10/01 05:37:26;;;;;;;13.60;10.30;;;;;;;10.32;100.00;97786.63;110026;1245;59667;-61
2023/10/01 05:39:57;;;;;;;10.60;8.20;;;;;;;10.69;100.00;97782.60;109935;1247;59690;-61
2023/10/01 05:42:41;;;;;;;10.70;8.40;;;;;;;10.92;99.22;97785.61;109783;1243;72017;-61
2023/10/01 05:45:36;;;;;;;10.40;7.90;;;;;;;11.09;99.03;97783.37;109818;1245;69526;-61
2023/10/01 05:48:10;;;;;;;9.00;7.40;;;;;;;11.38;97.98;97789.91;109824;1243;68437;-61
2023/10/01 05:50:41;;;;;;;9.60;7.50;;;;;;;11.71;97.38;97795.48;109974;1247;59712;-60
2023/10/01 05:53:13;;;;;;;10.50;8.70;;;;;;;11.90;94.80;97797.48;110058;1242;59664;-60
2023/10/01 05:55:43;;;;;;;9.80;7.70;;;;;;;12.07;93.71;97799.35;110073;1242;70631;-59
2023/10/01 05:58:19;;;;;;;9.80;8.60;;;;;;;12.28;92.96;97793.08;110122;1244;70094;-60
2023/10/01 06:01:05;;;;;;;11.60;8.10;;;;;;;12.59;94.52;97785.52;110094;1244;69372;-60
2023/10/01 06:03:40;;;;;;;9.90;7.70;;;;;;;12.97;94.15;97777.27;110095;1242;59703;-60
2023/10/01 06:06:14;;;;;;;9.40;8.20;;;;;;;13.25;89.76;97776.66;110079;1242;60130;-60
2023/10/01 06:08:49;;;;;;;8.20;7.30;;;;;;;13.54;87.37;97780.19;110130;1243;71365;-60
2023/10/01 06:11:38;;;;;;;9.60;7.90;;;;;;;13.86;87.26;97777.80;110092;1244;69305;-60
2023/10/01 06:17:00;;;;;;;10.80;8.90;;;;;;;13.76;84.08;97775.96;110072;1244;59751;-60
2023/10/01 06:19:38;;;;;;;10.20;8.60;;;;;;;13.85;84.18;97776.86;110106;1242;59666;-60
2023/10/01 06:22:13;;;;;;;10.50;8.40;;;;;;;13.99;83.57;97782.59;110149;1241;70705;-61
2023/10/01 06:24:43;;;;;;;11.00;9.00;;;;;;;14.04;84.01;97784.05;110072;1244;69311;-61
2023/10/01 06:27:18;;;;;;;10.50;9.00;;;;;;;14.17;83.13;97784.75;109800;1243;69854;-60
2023/10/01 06:29:50;;;;;;;11.60;9.10;;;;;;;14.33;82.70;97787.70;110092;1244;59800;-62
2023/10/01 06:32:21;;;;;;;12.00;10.00;;;;;;;14.67;81.79;97790.68;110168;1244;59694;-61
2023/10/01 06:34:57;;;;;;;8.70;7.90;;;;;;;14.97;79.88;97795.70;109813;1243;71526;-62
2023/10/01 06:37:50;;;;;;;11.20;8.40;;;;;;;15.35;79.10;97796.80;110074;1244;69209;-62
2023/10/01 06:40:31;;;;;;;9.50;7.60;;;;;;;15.80;78.44;97803.65;110047;1244;69325;-61
2023/10/01 06:43:02;;;;;;;9.30;7.90;;;;;;;16.39;77.60;97808.75;110088;1244;59681;-60
2023/10/01 06:45:41;;;;;;;11.10;8.30;;;;;;;16.71;74.78;97807.45;110109;1244;59669;-60
2023/10/01 06:48:14;;;;;;;12.10;10.50;;;;;;;17.20;73.77;97806.13;109856;1242;71392;-61
2023/10/01 06:50:44;;;;;;;9.50;8.10;;;;;;;17.39;72.08;97801.30;109992;1244;69221;-61
2023/10/01 06:53:17;;;;;;;9.80;8.50;;;;;;;17.42;70.23;97807.36;109881;1247;69772;-61
2023/10/01 06:55:47;;;;;;;9.70;8.60;;;;;;;17.56;69.59;97808.56;109802;1242;59754;-61
2023/10/01 06:58:16;;;;;;;10.00;8.30;;;;;;;17.61;67.28;97808.08;109811;1243;59693;-61
2023/10/01 07:00:46;;;;;;;11.50;10.30;;;;;;;17.97;68.47;97799.70;109872;1244;71973;-59
2023/10/01 07:03:21;;;;;;;9.50;8.00;;;;;;;18.33;68.88;97796.90;110084;1243;69838;-60
2023/10/01 07:05:52;;;;;;;10.10;8.70;;;;;;;18.58;65.14;97797.05;110043;1245;69957;-62
2023/10/01 07:08:32;;;;;;;11.50;9.90;;;;;;;18.94;66.99;97793.80;109915;1245;59753;-61
2023/10/01 07:11:11;;;;;;;9.10;7.80;;;;;;;19.37;64.55;97791.02;109899;1243;59692;-62
2023/10/01 07:13:42;;;;;;;9.90;8.00;;;;;;;19.72;63.04;97798.34;109907;1244;71977;-62
2023/10/01 07:16:17;;;;;;;11.50;9.30;;;;;;;19.97;59.64;97801.81;109797;1244;69858;-62
2023/10/01 07:18:46;;;;;;;10.30;9.20;;;;;;;19.76;57.33;97802.41;109914;1243;69263;-61
2023/10/01 07:21:16;;;;;;;9.20;8.00;;;;;;;19.57;57.69;97803.86;109894;1245;59736;-60
2023/10/01 07:23:46;;;;;;;8.80;7.60;;;;;;;19.77;58.80;97807.41;109905;1245;59658;-61
2023/10/01 07:26:15;;;;;;;9.40;8.00;;;;;;;19.99;55.46;97815.78;109901;1245;71383;-61
2023/10/01 07:28:52;;;;;;;10.00;8.50;;;;;;;19.86;55.82;97810.89;109888;1243;69831;-62
2023/10/01 07:31:26;;;;;;;7.80;7.00;;;;;;;20.23;55.41;97811.56;109961;1243;69253;-62
2023/10/01 07:34:01;;;;;;;9.10;7.90;;;;;;;20.54;54.96;97806.51;110006;1245;59742;-62
2023/10/01 07:36:31;;;;;;;7.20;6.50;;;;;;;21.35;54.17;97810.98;109869;1246;59679;-62
2023/10/01 07:39:04;;;;;;;;;;;;;;;21.76;53.41;97808.87;109994;1245;71944;-61
2023/10/01 07:41:38;;;;;;;8.50;7.20;;;;;;;22.12;51.26;97812.45;109877;1245;69834;-59
2023/10/01 07:44:08;;;;;;;8.50;7.50;;;;;;;22.60;52.40;97813.88;109795;1245;69870;-62
2023/10/01 07:46:38;;;;;;;9.20;7.60;;;;;;;22.96;51.35;97811.31;109764;1245;59744;-62
2023/10/01 07:49:09;;;;;;;7.40;6.60;;;;;;;23.18;49.77;97811.96;109795;1243;59718;-61
2023/10/01 07:51:44;;;;;;;10.00;7.20;;;;;;;23.08;47.96;97813.85;109810;1245;71019;-60
2023/10/01 07:54:22;;;;;;;9.70;7.70;;;;;;;23.37;47.95;97813.23;109832;1243;68434;-60
2023/10/01 07:56:56;;;;;;;8.60;7.40;;;;;;;23.50;47.53;97811.64;109784;1245;69537;-61
2023/10/01 07:59:34;;;;;;;7.50;6.80;;;;;;;23.68;45.43;97816.48;109864;1244;59700;-61
2023/10/01 08:04:57;;;;;;;8.00;6.90;;;;;;;24.07;45.33;97814.99;109908;1243;71428;-62
2023/10/01 08:07:39;;;;;;;7.90;7.10;;;;;;;24.12;44.57;97814.52;109937;1243;69069;-63
2023/10/01 08:10:17;;;;;;;8.40;7.50;;;;;;;23.93;44.62;97818.25;109960;1245;69885;-61
2023/10/01 08:15:50;;;;;;;7.50;6.80;;;;;;;22.91;46.27;97817.78;110034;1243;59685;-61
2023/10/01 08:18:26;;;;;;;8.20;7.40;;;;;;;22.73;46.83;97815.79;109843;1243;71256;-61
2023/10/01 08:20:58;;;;;;;9.20;8.30;;;;;;;23.59;45.72;97812.21;109789;1245;69115;-61
2023/10/01 08:23:45;;;;;;;9.50;7.70;;;;;;;23.92;45.05;97812.63;109820;1245;68736;-61
2023/10/01 08:29:04;;;;;;;;;;;;;;;24.62;44.66;97808.02;109875;1246;59678;-61
2023/10/01 08:34:27;;;;;;;7.40;6.70;;;;;;;25.89;42.57;97806.08;109799;1245;69261;-61
2023/10/01 08:37:04;;;;;;;10.20;9.00;;;;;;;26.08;40.46;97804.06;109793;1245;69317;-61
2023/10/01 08:42:09;;;;;;;8.40;7.50;;;;;;;25.59;40.11;97810.73;109772;1245;59634;-62
2023/10/01 08:44:50;;;;;;;9.20;7.00;;;;;;;25.50;40.47;97813.06;109764;1246;71532;-61
2023/10/01 08:47:37;;;;;;;8.60;7.00;;;;;;;26.14;40.00;97814.67;109767;1245;69863;-60
2023/10/01 08:50:27;;;;;;;6.60;6.00;;;;;;;26.32;38.67;97815.19;109748;1248;69892;-60
2023/10/01 08:52:58;;;;;;;7.50;6.70;;;;;;;25.50;38.62;97812.24;109817;1244;59678;-62
2023/10/01 08:55:35;;;;;;;6.90;5.90;;;;;;;26.17;39.12;97814.64;109774;1243;59655;-61
2023/10/01 08:58:25;;;;;;;6.50;5.80;;;;;;;26.54;38.43;97818.47;109822;1246;70870;-62
2023/10/01 09:01:12;;;;;;;6.70;6.10;;;;;;;27.06;38.29;97817.85;109800;1247;68828;-62
2023/10/01 09:03:48;;;;;;;6.80;6.10;;;;;;;27.76;37.75;97817.70;109777;1243;69520;-62
2023/10/01 09:06:25;;;;;;;6.50;5.70;;;;;;;27.88;36.86;97818.29;109747;1244;59767;-61
2023/10/01 09:09:19;;;;;;;6.80;6.00;;;;;;;28.39;35.86;97825.83;109388;1244;59783;-61
2023/10/01 09:11:50;;;;;;;6.70;6.10;;;;;;;28.89;34.72;97828.73;109773;1249;71360;-62
2023/10/01 09:14:38;;;;;;;6.20;5.40;;;;;;;29.26;34.25;97827.77;109765;1246;69383;-61
2023/10/01 09:17:27;;;;;;;6.20;5.70;;;;;;;29.46;33.94;97823.67;109804;1244;69961;-61
2023/10/01 09:20:07;;;;;;;6.60;5.70;;;;;;;28.91;34.20;97818.60;109825;1245;59766;-61
2023/10/01 09:22:58;;;;;;;7.70;6.90;;;;;;;29.07;34.35;97816.23;109755;1247;59705;-62
2023/10/01 09:25:30;;;;;;;7.20;6.10;;;;;;;28.75;34.07;97810.69;109848;1245;71399;-61
2023/10/01 09:28:04;;;;;;;7.30;6.60;;;;;;;29.12;34.30;97809.69;109871;1245;69915;-60
2023/10/01 09:30:35;;;;;;;7.40;6.60;;;;;;;29.02;33.35;97804.49;109816;1243;69322;-61
2023/10/01 09:33:14;;;;;;;9.10;6.40;;;;;;;29.00;34.31;97802.05;109934;1243;59755;-61
2023/10/01 09:35:59;;;;;;;7.30;6.60;;;;;;;28.74;34.14;97799.55;109909;1244;59699;-61
2023/10/01 09:38:29;;;;;;;7.70;7.00;;;;;;;29.50;33.60;97797.92;109789;1245;71347;-61
2023/10/01 09:41:00;;;;;;;6.70;6.00;;;;;;;29.50;33.71;97793.08;109865;1247;69297;-61
2023/10/01 09:43:33;;;;;;;7.30;6.60;;;;;;;28.37;33.99;97791.96;109746;1245;69853;-61
2023/10/01 09:46:03;;;;;;;7.50;6.70;;;;;;;28.72;34.61;97789.89;109847;1243;59749;-61
2023/10/01 09:48:48;;;;;;;8.40;7.50;;;;;;;28.43;34.63;97789.81;110008;1243;59666;-60
2023/10/01 09:51:21;;;;;;;8.10;7.40;;;;;;;29.02;33.64;97792.80;109957;1247;72021;-60
2023/10/01 09:54:00;;;;;;;8.10;7.30;;;;;;;29.17;33.74;97790.41;109839;1246;69740;-60
2023/10/01 09:56:31;;;;;;;6.80;6.20;;;;;;;29.06;34.36;97789.55;110027;1243;69880;-61
2023/10/01 09:59:03;;;;;;;7.20;6.50;;;;;;;29.83;34.02;97787.30;109846;1245;59804;-61
2023/10/01 10:01:35;;;;;;;7.60;6.80;;;;;;;29.61;33.13;97795.54;109865;1247;60062;-61
2023/10/01 10:04:06;;;;;;;9.00;8.00;;;;;;;29.73;32.97;97789.16;109809;1245;71991;-61
2023/10/01 10:06:42;;;;;;;8.10;6.70;;;;;;;29.53;33.06;97783.23;109868;1247;69292;-61
2023/10/01 10:09:25;;;;;;;7.80;7.00;;;;;;;29.28;33.93;97781.15;109829;1246;69931;-61
2023/10/01 10:11:54;;;;;;;8.00;7.20;;;;;;;29.07;33.76;97781.48;109753;1245;59688;-61
2023/10/01 10:14:33;;;;;;;8.20;7.40;;;;;;;29.48;34.03;97781.25;109902;1245;59697;-62
2023/10/01 10:17:18;;;;;;;9.50;8.40;;;;;;;29.32;33.58;97783.03;109844;1245;71390;-62
2023/10/01 10:23:13;;;;;;;7.60;6.90;;;;;;;29.21;34.38;97777.77;110033;1245;69855;-60
2023/10/01 10:25:45;;;;;;;10.30;8.50;;;;;;;28.87;34.68;97778.94;109763;1245;59744;-61
2023/10/01 10:28:29;;;;;;;7.90;7.10;;;;;;;28.38;35.17;97776.67;109746;1245;59692;-61
2023/10/01 10:31:29;;;;;;;8.30;7.40;;;;;;;28.81;35.51;97771.64;109916;1246;71972;-62
2023/10/01 10:34:21;;;;;;;7.90;7.10;;;;;;;29.97;33.78;97765.10;109778;1246;69216;-62
2023/10/01 10:36:55;;;;;;;7.60;6.80;;;;;;;29.97;33.54;97756.45;109776;1243;69294;-61
2023/10/01 10:39:49;;;;;;;7.20;6.50;;;;;;;31.01;32.92;97753.56;109728;1247;59631;-61
2023/10/01 10:42:29;;;;;;;6.30;5.60;;;;;;;30.45;32.50;97750.02;109833;1246;59691;-62
2023/10/01 10:45:20;;;;;;;7.10;6.00;;;;;;;30.85;32.25;97756.30;110017;1243;72000;-62
2023/10/01 10:48:03;;;;;;;6.10;5.30;;;;;;;31.53;31.56;97754.04;109944;1244;69809;-61
2023/10/01 10:50:54;;;;;;;7.00;6.30;;;;;;;32.08;30.70;97751.33;110002;1244;68660;-61
2023/10/01 10:53:42;;;;;;;6.90;5.60;;;;;;;32.35;30.71;97749.06;109904;1247;59707;-60
2023/10/01 10:56:14;;;;;;;7.20;6.40;;;;;;;31.01;31.04;97746.14;110049;1245;59716;-60
2023/10/01 10:58:44;;;;;;;6.70;6.00;;;;;;;29.80;32.99;97740.66;109912;1247;71955;-60
2023/10/01 11:01:20;;;;;;;7.80;7.00;;;;;;;30.04;33.32;97736.44;109911;1246;69736;-60
2023/10/01 11:04:00;;;;;;;8.40;7.60;;;;;;;30.63;32.77;97736.23;109873;1242;69148;-60
2023/10/01 11:06:39;;;;;;;7.40;6.50;;;;;;;30.91;32.18;97733.19;109895;1244;59769;-61
2023/10/01 11:09:27;;;;;;;7.20;5.80;;;;;;;31.59;31.80;97726.75;110057;1247;59754;-62
2023/10/01 11:12:01;;;;;;;6.40;5.80;;;;;;;32.33;30.91;97725.40;109924;1243;71963;-60
2023/10/01 11:14:30;;;;;;;6.20;5.60;;;;;;;31.85;30.30;97722.31;109914;1243;69868;-61
2023/10/01 11:16:59;;;;;;;6.40;5.50;;;;;;;32.22;30.84;97718.75;109796;1243;69272;-62
2023/10/01 11:19:35;;;;;;;6.80;6.20;;;;;;;32.39;30.35;97717.23;109834;1245;59685;-61
2023/10/01 11:22:08;;;;;;;6.10;5.60;;;;;;;31.82;30.87;97714.90;109781;1246;59711;-60
2023/10/01 11:24:42;;;;;;;6.80;6.10;;;;;;;32.21;31.06;97716.27;109846;1246;71959;-60
2023/10/01 11:27:19;;;;;;;5.70;5.10;;;;;;;32.10;30.89;97713.20;109818;1244;69653;-61
2023/10/01 11:30:24;;;;;;;6.50;5.60;;;;;;;32.32;30.72;97715.73;109801;1243;68564;-61
2023/10/01 11:36:06;;;;;;;6.60;5.70;;;;;;;30.82;31.78;97719.05;109859;1247;59670;-61
2023/10/01 11:38:43;;;;;;;5.90;5.40;;;;;;;30.99;32.17;97717.67;109877;1246;71334;-61
2023/10/01 11:41:13;;;;;;;7.30;6.10;;;;;;;31.12;31.98;97712.79;109961;1244;69874;-61
2023/10/01 11:43:45;;;;;;;6.30;5.40;;;;;;;30.95;31.85;97706.85;109944;1246;69181;-59
2023/10/01 11:46:25;;;;;;;5.60;5.00;;;;;;;30.19;32.58;97713.28;110024;1243;59752;-62
2023/10/01 11:49:17;;;;;;;7.90;6.00;;;;;;;28.95;34.35;97714.50;109759;1242;59703;-62
2023/10/01 11:51:50;;;;;;;6.10;5.50;;;;;;;28.37;35.92;97714.11;109907;1243;71574;-61
2023/10/01 11:54:22;;;;;;;7.20;5.60;;;;;;;28.09;36.14;97712.46;109975;1245;69573;-60
2023/10/01 11:57:05;;;;;;;6.40;5.70;;;;;;;28.34;36.44;97708.31;109826;1243;69075;-62
2023/10/01 11:59:36;;;;;;;7.40;6.40;;;;;;;28.02;36.83;97703.69;109786;1245;59699;-63
2023/10/01 12:02:20;;;;;;;6.20;5.60;;;;;;;28.09;36.57;97703.29;109869;1243;59757;-61
2023/10/01 12:04:59;;;;;;;6.50;5.50;;;;;;;27.89;37.03;97701.55;109798;1245;72014;-61
2023/10/01 12:07:40;;;;;;;6.90;6.20;;;;;;;27.84;36.89;97691.94;109934;1245;69922;-60
2023/10/01 12:13:01;;;;;;;6.30;5.30;;;;;;;28.09;36.38;97693.79;109893;1244;59776;-61
2023/10/01 12:15:50;;;;;;;6.80;5.60;;;;;;;28.57;36.08;97692.52;109842;1245;59678;-61
2023/10/01 12:18:20;;;;;;;5.80;5.20;;;;;;;28.66;35.54;97683.63;109794;1243;72022;-61
2023/10/01 12:20:56;;;;;;;6.60;5.60;;;;;;;28.39;36.53;97684.48;109897;1246;69774;-61
2023/10/01 12:23:26;;;;;;;7.50;5.60;;;;;;;28.15;36.67;97683.83;109841;1247;69252;-61
2023/10/01 12:26:31;;;;;;;6.10;5.10;;;;;;;28.07;36.50;97682.97;109918;1245;59768;-61
2023/10/01 12:31:35;;;;;;;6.80;5.20;;;;;;;27.64;37.70;97680.16;109912;1244;71391;-61
2023/10/01 12:34:05;;;;;;;5.90;5.30;;;;;;;28.06;37.25;97678.43;109955;1243;67670;-61
2023/10/01 12:44:25;;;;;;;5.80;5.00;;;;;;;26.92;38.10;97677.16;109779;1243;71971;-61
2023/10/01 12:46:55;;;;;;;5.50;5.00;;;;;;;26.58;38.71;97677.74;109752;1247;70114;-61
2023/10/01 12:49:24;;;;;;;5.00;4.50;;;;;;;26.42;38.88;97675.58;109835;1245;69143;-60
2023/10/01 12:51:54;;;;;;;5.50;5.00;;;;;;;26.10;39.34;97676.73;109739;1245;59685;-62
2023/10/01 12:54:28;;;;;;;7.90;6.60;;;;;;;25.94;39.41;97672.05;109855;1246;59754;-61
2023/10/01 12:57:18;;;;;;;6.00;4.90;;;;;;;25.46;40.56;97672.14;109785;1245;71337;-62
2023/10/01 13:00:21;;;;;;;5.10;4.50;;;;;;;25.32;40.32;97669.99;109914;1245;69443;-62
2023/10/01 13:02:43;;;;;;;7.40;5.50;;;;;;;25.21;40.72;97669.35;109853;1246;69398;-62
2023/10/01 13:05:27;;;;;;;6.00;4.90;;;;;;;24.95;41.91;97661.45;109914;1247;59720;-62